Аэропорт: Михайловка. Барнаул

ICAO: UNBB

METAR:
2020-06-02 07:30:00
UNBB 020730Z 28011MPS CAVOK 26/05 Q1005 R24/CLRD66 NOSIG RMK QFE731
METAR:
2020-06-02 05:00:00
TAF UNBB 020500Z 0206/0306 26006G12MPS 9999 SCT030CB TEMPO 0206/0218 30011G17MPS PROB40 TEMPO 0206/0216 -TSRA BECMG 0219/0221 30003G08MPS